createdAt,value
2018-03-26T00:02:22.687Z,69.00
2018-03-26T00:04:50.235Z,63.77
2018-03-26T00:07:17.736Z,63.30
2018-03-26T00:09:45.641Z,57.10
2018-03-26T00:12:13.188Z,59.97
2018-03-26T00:14:40.691Z,62.83
2018-03-26T00:17:08.214Z,69.20
2018-03-26T00:19:35.763Z,58.60
2018-03-26T00:22:03.578Z,59.87
2018-03-26T00:24:31.107Z,59.57
2018-03-26T00:26:58.648Z,58.60
2018-03-26T00:29:26.189Z,57.73
2018-03-26T00:31:53.701Z,60.10
2018-03-26T00:34:21.262Z,65.43
2018-03-26T00:36:48.776Z,65.33
2018-03-26T00:39:16.612Z,59.00
2018-03-26T00:41:44.156Z,59.07
2018-03-26T00:44:11.742Z,54.87
2018-03-26T00:46:39.232Z,51.83
2018-03-26T00:49:06.773Z,57.07
2018-03-26T00:51:34.602Z,63.83
2018-03-26T00:54:02.370Z,63.20
2018-03-26T00:56:29.925Z,52.97
2018-03-26T00:58:57.434Z,53.10
2018-03-26T01:01:24.940Z,57.37
2018-03-26T01:03:52.635Z,58.83
2018-03-26T01:06:20.169Z,56.50
2018-03-26T01:08:47.703Z,55.03
2018-03-26T01:11:15.242Z,52.13
2018-03-26T01:13:43.053Z,57.87
2018-03-26T01:16:10.830Z,53.83
2018-03-26T01:18:38.356Z,59.47
2018-03-26T01:21:05.869Z,50.00
2018-03-26T01:23:33.376Z,62.73
2018-03-26T01:26:01.137Z,49.57
2018-03-26T01:28:28.646Z,49.57
2018-03-26T01:30:56.154Z,50.00
2018-03-26T01:33:23.825Z,53.60
2018-03-26T01:35:51.460Z,50.70
2018-03-26T01:38:19.402Z,45.93
2018-03-26T01:40:47.363Z,53.20
2018-03-26T01:43:14.996Z,50.10
2018-03-26T01:45:42.585Z,51.37
2018-03-26T01:48:10.175Z,51.30
2018-03-26T01:50:38.464Z,50.53
2018-03-26T01:53:06.033Z,47.67
2018-03-26T01:55:33.645Z,47.27
2018-03-26T01:58:01.425Z,49.83
2018-03-26T02:00:29.379Z,44.80
2018-03-26T02:02:56.966Z,48.73
2018-03-26T02:05:24.526Z,46.83
2018-03-26T02:07:52.367Z,58.10
2018-03-26T02:10:19.954Z,48.80
2018-03-26T02:12:47.507Z,45.10
2018-03-26T02:15:15.046Z,50.03
2018-03-26T02:17:42.866Z,49.80
2018-03-26T02:20:10.421Z,48.23
2018-03-26T02:22:37.977Z,47.87
2018-03-26T02:25:05.572Z,48.83
2018-03-26T02:27:33.149Z,51.40
2018-03-26T02:30:00.752Z,52.20
2018-03-26T02:32:28.340Z,48.97
2018-03-26T02:34:55.913Z,51.77
2018-03-26T02:37:23.540Z,50.40
2018-03-26T02:39:51.476Z,49.50
2018-03-26T02:42:19.111Z,52.47
2018-03-26T02:44:46.700Z,49.60
2018-03-26T02:47:14.570Z,51.50
2018-03-26T02:49:42.450Z,54.10
2018-03-26T02:52:10.827Z,51.63
2018-03-26T02:54:38.430Z,50.20
2018-03-26T02:57:06.019Z,52.97
2018-03-26T02:59:33.573Z,49.23
2018-03-26T03:02:01.173Z,49.80
2018-03-26T03:04:28.723Z,51.13
2018-03-26T03:06:56.299Z,52.63
2018-03-26T03:09:23.897Z,50.20
2018-03-26T03:11:51.720Z,50.03
2018-03-26T03:14:19.290Z,54.00
2018-03-26T03:16:46.883Z,55.57
2018-03-26T03:19:14.502Z,53.33
2018-03-26T03:21:42.044Z,48.93
2018-03-26T03:24:09.689Z,50.93
2018-03-26T03:26:37.259Z,58.53
2018-03-26T03:29:04.819Z,49.03
2018-03-26T03:31:32.429Z,50.80
2018-03-26T03:33:59.984Z,57.03
2018-03-26T03:36:27.542Z,53.13
2018-03-26T03:38:55.125Z,52.50
2018-03-26T03:41:22.687Z,51.00
2018-03-26T03:43:50.507Z,51.10
2018-03-26T03:46:18.120Z,46.67
2018-03-26T03:48:45.728Z,61.67
2018-03-26T03:51:13.277Z,60.70
2018-03-26T03:53:41.164Z,59.30
2018-03-26T03:56:08.731Z,49.73
2018-03-26T03:58:36.400Z,52.77
2018-03-26T04:01:04.274Z,58.80
2018-03-26T04:03:32.083Z,56.73
2018-03-26T04:05:59.671Z,54.83
2018-03-26T04:08:27.486Z,52.67
2018-03-26T04:10:55.318Z,57.03
2018-03-26T04:13:22.881Z,55.13
2018-03-26T04:15:50.563Z,54.70
2018-03-26T04:18:18.135Z,54.30
2018-03-26T04:20:46.333Z,57.60
2018-03-26T04:23:13.919Z,53.27
2018-03-26T04:25:41.508Z,54.10
2018-03-26T04:28:09.108Z,49.47
2018-03-26T04:30:36.720Z,54.03
2018-03-26T04:33:04.326Z,54.20
2018-03-26T04:35:31.938Z,59.03
2018-03-26T04:37:59.519Z,56.97
2018-03-26T04:40:27.247Z,53.53
2018-03-26T04:42:54.890Z,62.30
2018-03-26T04:45:22.518Z,60.37
2018-03-26T04:47:50.287Z,50.07
2018-03-26T04:50:18.129Z,60.53
2018-03-26T04:52:45.733Z,55.83
2018-03-26T04:55:13.361Z,54.13
2018-03-26T04:57:40.936Z,53.47
2018-03-26T05:00:08.808Z,57.70
2018-03-26T05:02:36.421Z,53.53
2018-03-26T05:05:04.028Z,54.40
2018-03-26T05:07:31.612Z,56.87
2018-03-26T05:09:59.171Z,49.77
2018-03-26T05:12:26.750Z,51.60
2018-03-26T05:14:54.298Z,57.17
2018-03-26T05:17:21.853Z,53.50
2018-03-26T05:19:49.464Z,52.47
2018-03-26T05:22:17.087Z,54.37
2018-03-26T05:24:45.456Z,57.63
2018-03-26T05:27:13.101Z,62.10
2018-03-26T05:29:40.708Z,54.53
2018-03-26T05:32:08.617Z,56.10
2018-03-26T05:34:36.393Z,50.33
2018-03-26T05:37:04.677Z,52.67
2018-03-26T05:39:32.240Z,62.93
2018-03-26T05:41:59.796Z,65.33
2018-03-26T05:44:27.395Z,53.57
2018-03-26T05:46:55.589Z,60.23
2018-03-26T05:49:23.165Z,51.10
2018-03-26T05:51:50.727Z,57.57
2018-03-26T05:54:19.534Z,58.37
2018-03-26T05:56:47.392Z,54.33
2018-03-26T05:59:14.972Z,56.13
2018-03-26T06:01:42.580Z,60.07
2018-03-26T06:04:10.211Z,51.47
2018-03-26T06:06:37.820Z,68.37
2018-03-26T06:09:06.542Z,56.67
2018-03-26T06:11:34.160Z,59.47
2018-03-26T06:14:01.845Z,58.03
2018-03-26T06:16:29.392Z,55.53
2018-03-26T06:18:57.930Z,62.37
2018-03-26T06:21:26.082Z,53.43
2018-03-26T06:23:53.655Z,57.50
2018-03-26T06:26:21.400Z,61.87
2018-03-26T06:28:48.960Z,63.30
2018-03-26T06:31:16.570Z,60.37
2018-03-26T06:33:44.158Z,59.67
2018-03-26T06:36:17.577Z,58.17
2018-03-26T06:39:04.453Z,66.23
2018-03-26T06:41:32.030Z,59.13
2018-03-26T06:43:59.622Z,57.57
2018-03-26T06:46:27.586Z,62.30
2018-03-26T06:48:55.995Z,60.57
2018-03-26T06:51:23.657Z,76.67
2018-03-26T06:53:51.505Z,75.03
2018-03-26T06:56:19.103Z,51.77
2018-03-26T06:58:46.716Z,53.43
2018-03-26T07:01:16.573Z,64.33
2018-03-26T07:03:47.176Z,65.70
2018-03-26T07:06:14.909Z,60.83
2018-03-26T07:08:44.161Z,62.63
2018-03-26T07:11:11.731Z,57.70
2018-03-26T07:13:39.328Z,55.83
2018-03-26T07:16:06.929Z,71.13
2018-03-26T07:18:34.812Z,59.30
2018-03-26T07:21:02.414Z,58.27
2018-03-26T07:23:29.976Z,56.07
2018-03-26T07:25:57.762Z,56.10
2018-03-26T07:28:25.464Z,57.60
2018-03-26T07:30:53.078Z,55.93
2018-03-26T07:33:20.784Z,57.33
2018-03-26T07:35:51.545Z,59.50
2018-03-26T07:38:19.197Z,57.87
2018-03-26T07:40:46.747Z,48.33
2018-03-26T07:43:14.312Z,69.00
2018-03-26T07:45:42.168Z,55.70
2018-03-26T07:48:09.767Z,57.60
2018-03-26T07:50:37.586Z,57.13
2018-03-26T07:53:05.219Z,63.10
2018-03-26T07:55:32.835Z,52.90
2018-03-26T07:58:00.443Z,62.10
2018-03-26T08:00:28.106Z,60.37
2018-03-26T08:02:55.970Z,57.77
2018-03-26T08:05:23.650Z,65.63
2018-03-26T08:07:51.291Z,59.90
2018-03-26T08:10:18.856Z,67.80
2018-03-26T08:12:46.515Z,60.70
2018-03-26T08:15:14.113Z,63.30
2018-03-26T08:17:41.676Z,59.83
2018-03-26T08:20:09.946Z,60.67
2018-03-26T08:22:37.529Z,66.03
2018-03-26T08:25:05.154Z,65.00
2018-03-26T08:27:33.347Z,64.03
2018-03-26T08:30:00.929Z,66.93
2018-03-26T08:32:28.561Z,71.63
2018-03-26T08:34:56.238Z,71.53
2018-03-26T08:37:23.909Z,66.77
2018-03-26T08:39:53.593Z,73.97
2018-03-26T08:42:21.248Z,69.93
2018-03-26T08:44:50.118Z,70.30
2018-03-26T08:47:20.477Z,69.33
2018-03-26T08:49:48.303Z,72.77
2018-03-26T08:52:20.910Z,73.63
2018-03-26T08:54:48.919Z,70.40
2018-03-26T08:57:16.550Z,68.33
2018-03-26T08:59:48.847Z,72.03
2018-03-26T09:02:16.456Z,65.33
2018-03-26T09:04:44.400Z,79.03
2018-03-26T09:07:15.536Z,81.13
2018-03-26T09:09:43.767Z,88.97
2018-03-26T09:12:13.872Z,84.47
2018-03-26T09:14:43.820Z,85.17
2018-03-26T09:17:13.644Z,79.40
2018-03-26T09:19:42.900Z,78.73
2018-03-26T09:22:11.159Z,84.57
2018-03-26T09:24:42.922Z,71.23
2018-03-26T09:27:15.300Z,94.27
2018-03-26T09:29:43.776Z,73.80
2018-03-26T09:32:16.519Z,88.00
2018-03-26T09:34:47.813Z,83.17
2018-03-26T09:37:23.269Z,73.40
2018-03-26T09:39:54.497Z,93.50
2018-03-26T09:42:22.206Z,82.90
2018-03-26T09:44:57.060Z,91.00
2018-03-26T09:47:29.679Z,99.27
2018-03-26T09:49:58.124Z,88.40
2018-03-26T09:52:25.984Z,81.33
2018-03-26T09:54:53.756Z,91.67
2018-03-26T09:57:21.418Z,83.13
2018-03-26T09:59:50.911Z,99.47
2018-03-26T10:02:18.539Z,94.83
2018-03-26T10:04:46.907Z,80.53
2018-03-26T10:09:48.667Z,92.60
2018-03-26T10:12:16.367Z,94.97
2018-03-26T10:14:43.953Z,83.30
2018-03-26T10:17:11.655Z,97.20
2018-03-26T10:19:39.818Z,95.30
2018-03-26T10:22:07.410Z,101.10
2018-03-26T10:24:35.003Z,95.90
2018-03-26T10:27:04.012Z,100.77
2018-03-26T10:29:31.604Z,108.93
2018-03-26T10:31:59.266Z,104.50
2018-03-26T10:34:26.887Z,100.80
2018-03-26T10:36:54.433Z,95.37
2018-03-26T10:39:22.047Z,110.37
2018-03-26T10:41:49.645Z,107.67
2018-03-26T10:44:17.239Z,91.33
2018-03-26T10:46:46.153Z,98.70
2018-03-26T10:49:14.642Z,97.20
2018-03-26T10:51:42.301Z,108.03
2018-03-26T10:54:09.929Z,106.73
2018-03-26T10:56:40.671Z,110.67
2018-03-26T10:59:09.123Z,91.67
2018-03-26T11:01:41.192Z,93.37
2018-03-26T11:04:16.863Z,92.90
2018-03-26T11:06:44.429Z,93.33
2018-03-26T11:09:12.129Z,85.07
2018-03-26T11:11:40.628Z,85.40
2018-03-26T11:14:08.700Z,88.30
2018-03-26T11:16:38.573Z,93.57
2018-03-26T11:19:06.471Z,86.73
2018-03-26T11:21:34.719Z,81.83
2018-03-26T11:24:06.004Z,85.77
2018-03-26T11:26:34.558Z,78.83
2018-03-26T11:29:04.957Z,81.30
2018-03-26T11:31:33.679Z,76.33
2018-03-26T11:34:02.565Z,67.60
2018-03-26T11:36:30.979Z,61.43
2018-03-26T11:38:58.537Z,65.00
2018-03-26T11:41:26.265Z,66.50
2018-03-26T11:43:54.501Z,57.73
2018-03-26T11:46:24.380Z,55.87
2018-03-26T11:48:57.259Z,85.67
2018-03-26T11:51:26.891Z,63.50
2018-03-26T11:53:57.473Z,63.03
2018-03-26T11:56:27.338Z,71.90
2018-03-26T11:58:57.365Z,71.73
2018-03-26T12:01:28.617Z,74.93
2018-03-26T12:04:00.379Z,80.97
2018-03-26T12:06:28.384Z,80.77
2018-03-26T12:08:55.998Z,91.87
2018-03-26T12:11:23.605Z,95.57
2018-03-26T12:13:51.185Z,84.93
2018-03-26T12:16:18.867Z,84.30
2018-03-26T12:18:46.532Z,81.50
2018-03-26T12:21:14.151Z,93.93
2018-03-26T12:23:53.456Z,97.90
2018-03-26T12:26:21.476Z,95.43
2018-03-26T12:29:02.452Z,97.43
2018-03-26T12:31:30.033Z,85.97
2018-03-26T12:34:09.765Z,80.07
2018-03-26T12:36:37.366Z,83.60
2018-03-26T12:39:04.929Z,80.57
2018-03-26T12:41:32.593Z,104.40
2018-03-26T12:44:00.187Z,98.73
2018-03-26T12:46:36.791Z,102.27
2018-03-26T12:49:04.375Z,88.83
2018-03-26T12:51:44.102Z,100.00
2018-03-26T12:54:11.731Z,72.83
2018-03-26T12:56:39.514Z,80.07
2018-03-26T12:59:07.202Z,74.00
2018-03-26T13:01:46.888Z,76.37
2018-03-26T13:04:17.269Z,70.33
2018-03-26T13:06:45.760Z,75.60
2018-03-26T13:09:13.406Z,72.13
2018-03-26T13:11:41.031Z,58.67
2018-03-26T13:14:08.900Z,55.80
2018-03-26T13:16:36.444Z,55.00
2018-03-26T13:19:04.034Z,52.77
2018-03-26T13:21:32.231Z,52.93
2018-03-26T13:24:07.532Z,44.33
2018-03-26T13:26:35.220Z,46.03
2018-03-26T13:29:02.963Z,52.03
2018-03-26T13:31:30.550Z,47.70
2018-03-26T13:33:58.202Z,54.83
2018-03-26T13:36:25.811Z,39.40
2018-03-26T13:38:54.004Z,51.43
2018-03-26T13:41:22.203Z,42.50
2018-03-26T13:43:50.563Z,42.80
2018-03-26T13:46:18.480Z,38.83
2018-03-26T13:48:46.061Z,41.23
2018-03-26T13:51:13.659Z,41.63
2018-03-26T13:53:41.266Z,32.93
2018-03-26T13:56:08.899Z,45.17
2018-03-26T13:58:36.520Z,39.53
2018-03-26T14:01:08.601Z,34.70
2018-03-26T14:06:15.433Z,37.93
2018-03-26T14:08:54.793Z,32.00
2018-03-26T14:11:34.156Z,38.10
2018-03-26T14:17:15.960Z,34.27
2018-03-26T14:19:43.775Z,31.77
2018-03-26T14:22:16.324Z,34.10
2018-03-26T14:24:43.994Z,32.27
2018-03-26T14:27:11.728Z,34.90
2018-03-26T14:29:39.319Z,37.00
2018-03-26T14:32:07.098Z,31.70
2018-03-26T14:34:34.739Z,32.17
2018-03-26T14:37:02.779Z,31.20
2018-03-26T14:39:30.391Z,31.10
2018-03-26T14:41:58.127Z,32.90
2018-03-26T14:44:26.692Z,34.20
2018-03-26T14:47:15.303Z,31.43
2018-03-26T14:49:42.909Z,39.87
2018-03-26T14:52:11.492Z,31.27
2018-03-26T14:54:43.967Z,34.87
2018-03-26T14:57:12.914Z,28.90
2018-03-26T14:59:43.875Z,33.17
2018-03-26T15:02:13.851Z,31.60
2018-03-26T15:04:42.994Z,30.70
2018-03-26T15:07:11.585Z,31.27
2018-03-26T15:09:39.487Z,29.27
2018-03-26T15:12:07.076Z,33.07
2018-03-26T15:14:34.866Z,28.77
2018-03-26T15:17:02.437Z,34.80
2018-03-26T15:19:30.041Z,32.47
2018-03-26T15:21:57.833Z,28.93
2018-03-26T15:24:27.339Z,25.73
2018-03-26T15:26:55.519Z,30.60
2018-03-26T15:29:23.183Z,34.67
2018-03-26T15:31:50.798Z,22.20
2018-03-26T15:34:23.790Z,26.47
2018-03-26T15:36:52.244Z,23.13
2018-03-26T15:39:19.847Z,23.87
2018-03-26T15:41:47.624Z,22.07
2018-03-26T15:44:15.270Z,24.97
2018-03-26T15:46:42.876Z,20.77
2018-03-26T15:49:10.494Z,22.13
2018-03-26T15:51:38.905Z,28.33
2018-03-26T15:54:06.603Z,35.50
2018-03-26T15:56:34.158Z,23.00
2018-03-26T15:59:01.742Z,22.57
2018-03-26T16:01:29.331Z,19.83
2018-03-26T16:03:56.973Z,25.60
2018-03-26T16:06:37.898Z,23.67
2018-03-26T16:09:06.139Z,20.50
2018-03-26T16:11:34.089Z,24.80
2018-03-26T16:14:01.718Z,19.20
2018-03-26T16:16:29.358Z,22.27
2018-03-26T16:18:56.959Z,24.10
2018-03-26T16:21:24.633Z,21.97
2018-03-26T16:23:52.205Z,20.00
2018-03-26T16:26:20.065Z,20.20
2018-03-26T16:28:47.689Z,21.13
2018-03-26T16:31:15.279Z,24.43
2018-03-26T16:33:42.863Z,23.87
2018-03-26T16:36:10.477Z,32.73
2018-03-26T16:38:39.055Z,24.27
2018-03-26T16:41:07.335Z,22.83
2018-03-26T16:43:36.148Z,31.03
2018-03-26T16:46:03.748Z,22.50
2018-03-26T16:48:31.449Z,24.63
2018-03-26T16:50:59.648Z,22.60
2018-03-26T16:53:27.424Z,47.87
2018-03-26T16:55:55.015Z,36.20
2018-03-26T16:58:22.943Z,23.77
2018-03-26T17:00:52.248Z,25.33
2018-03-26T17:03:20.043Z,21.57
2018-03-26T17:05:48.807Z,27.83
2018-03-26T17:08:16.557Z,24.83
2018-03-26T17:10:45.881Z,18.77
2018-03-26T17:13:13.459Z,27.30
2018-03-26T17:15:43.026Z,22.53
2018-03-26T17:18:10.594Z,23.13
2018-03-26T17:20:38.244Z,24.17
2018-03-26T17:23:06.156Z,28.30
2018-03-26T17:25:33.739Z,21.83
2018-03-26T17:28:02.995Z,23.03
2018-03-26T17:30:30.606Z,20.90
2018-03-26T17:32:58.654Z,21.80
2018-03-26T17:35:26.893Z,22.70
2018-03-26T17:37:54.473Z,21.23
2018-03-26T17:40:22.354Z,27.03
2018-03-26T17:42:49.942Z,22.73
2018-03-26T17:45:17.508Z,22.30
2018-03-26T17:47:45.094Z,21.60
2018-03-26T17:50:12.717Z,23.40
2018-03-26T17:52:40.589Z,23.80
2018-03-26T17:55:08.189Z,20.40
2018-03-26T17:57:35.775Z,20.87
2018-03-26T18:00:03.425Z,23.57
2018-03-26T18:02:31.067Z,22.37
2018-03-26T18:04:58.744Z,21.67
2018-03-26T18:07:27.310Z,27.90
2018-03-26T18:09:54.869Z,22.17
2018-03-26T18:12:22.570Z,39.40
2018-03-26T18:14:50.200Z,24.23
2018-03-26T18:17:17.827Z,19.20
2018-03-26T18:19:45.581Z,27.37
2018-03-26T18:22:13.239Z,24.33
2018-03-26T18:24:40.828Z,21.73
2018-03-26T18:27:08.474Z,19.47
2018-03-26T18:29:36.070Z,28.97
2018-03-26T18:32:03.885Z,31.53
2018-03-26T18:34:31.870Z,22.20
2018-03-26T18:36:59.509Z,24.20
2018-03-26T18:39:27.145Z,22.40
2018-03-26T18:41:55.343Z,19.83
2018-03-26T18:44:23.288Z,21.33
2018-03-26T18:46:51.142Z,25.17
2018-03-26T18:49:18.780Z,26.07
2018-03-26T18:51:46.391Z,22.70
2018-03-26T18:54:15.205Z,24.03
2018-03-26T18:56:42.790Z,22.17
2018-03-26T18:59:10.467Z,24.87
2018-03-26T19:01:38.305Z,21.67
2018-03-26T19:04:05.921Z,19.60
2018-03-26T19:06:34.487Z,20.80
2018-03-26T19:09:02.078Z,25.00
2018-03-26T19:11:30.376Z,20.90
2018-03-26T19:13:57.979Z,22.60
2018-03-26T19:16:26.364Z,19.97
2018-03-26T19:18:54.120Z,19.37
2018-03-26T19:21:22.138Z,20.67
2018-03-26T19:23:50.358Z,24.33
2018-03-26T19:26:17.987Z,25.53
2018-03-26T19:28:45.605Z,22.07
2018-03-26T19:31:13.261Z,19.60
2018-03-26T19:33:41.018Z,19.43
2018-03-26T19:36:08.715Z,24.53
2018-03-26T19:38:36.353Z,19.57
2018-03-26T19:41:04.894Z,18.67
2018-03-26T19:43:32.572Z,23.47
2018-03-26T19:46:00.154Z,26.80
2018-03-26T19:48:27.717Z,24.27
2018-03-26T19:50:55.303Z,21.77
2018-03-26T19:53:23.009Z,20.83
2018-03-26T19:55:50.898Z,23.47
2018-03-26T19:58:18.514Z,23.70
2018-03-26T20:00:46.164Z,26.00
2018-03-26T20:03:14.033Z,20.73
2018-03-26T20:05:41.684Z,22.87
2018-03-26T20:08:09.300Z,24.33
2018-03-26T20:10:37.832Z,26.93
2018-03-26T20:13:05.559Z,27.87
2018-03-26T20:15:33.156Z,24.27
2018-03-26T20:18:00.826Z,21.30
2018-03-26T20:20:28.442Z,24.03
2018-03-26T20:22:56.104Z,28.80
2018-03-26T20:25:23.666Z,22.87
2018-03-26T20:27:52.048Z,24.23
2018-03-26T20:30:21.323Z,20.43
2018-03-26T20:32:49.028Z,25.13
2018-03-26T20:35:16.691Z,23.53
2018-03-26T20:37:44.414Z,22.10
2018-03-26T20:40:12.719Z,20.40
2018-03-26T20:42:40.363Z,23.33
2018-03-26T20:45:07.974Z,21.53
2018-03-26T20:47:35.601Z,27.43
2018-03-26T20:50:04.122Z,26.50
2018-03-26T20:52:32.471Z,24.27
2018-03-26T20:55:00.072Z,27.03
2018-03-26T20:57:27.733Z,22.37
2018-03-26T20:59:57.037Z,25.73
2018-03-26T21:02:24.861Z,25.63
2018-03-26T21:04:52.458Z,24.63
2018-03-26T21:07:20.115Z,24.57
2018-03-26T21:09:47.732Z,23.73
2018-03-26T21:12:15.440Z,23.53
2018-03-26T21:14:43.005Z,22.27
2018-03-26T21:17:11.049Z,22.53
2018-03-26T21:19:39.050Z,24.40
2018-03-26T21:22:06.671Z,21.90
2018-03-26T21:24:34.243Z,22.97
2018-03-26T21:27:01.813Z,23.43
2018-03-26T21:29:29.554Z,26.50
2018-03-26T21:31:57.143Z,22.57
2018-03-26T21:34:24.804Z,23.47
2018-03-26T21:36:52.432Z,22.37
2018-03-26T21:39:20.017Z,22.30
2018-03-26T21:41:47.610Z,23.90
2018-03-26T21:44:15.227Z,25.20
2018-03-26T21:46:42.839Z,21.93
2018-03-26T21:49:10.430Z,25.83
2018-03-26T21:51:37.991Z,21.80
2018-03-26T21:54:06.100Z,23.90
2018-03-26T21:56:33.958Z,29.23
2018-03-26T21:59:02.154Z,33.53
2018-03-26T22:01:29.762Z,25.10
2018-03-26T22:03:57.361Z,21.43
2018-03-26T22:06:24.965Z,24.57
2018-03-26T22:08:54.331Z,21.90
2018-03-26T22:11:22.559Z,24.00
2018-03-26T22:13:50.364Z,21.50
2018-03-26T22:16:18.019Z,25.33
2018-03-26T22:18:45.999Z,20.53
2018-03-26T22:21:13.593Z,22.60
2018-03-26T22:23:41.179Z,23.33
2018-03-26T22:26:08.813Z,24.97
2018-03-26T22:28:36.408Z,20.77
2018-03-26T22:31:04.312Z,23.03
2018-03-26T22:33:32.181Z,21.70
2018-03-26T22:35:59.766Z,22.03
2018-03-26T22:38:28.056Z,26.67
2018-03-26T22:40:58.530Z,26.07
2018-03-26T22:43:26.441Z,22.07
2018-03-26T22:45:54.950Z,18.70
2018-03-26T22:48:22.552Z,22.60
2018-03-26T22:50:50.169Z,20.37
2018-03-26T22:53:17.735Z,20.67
2018-03-26T22:55:45.393Z,20.47
2018-03-26T22:58:12.989Z,23.43
2018-03-26T23:00:40.594Z,18.30
2018-03-26T23:03:08.180Z,19.70
2018-03-26T23:05:35.837Z,22.37
2018-03-26T23:08:03.680Z,21.53
2018-03-26T23:10:31.275Z,23.53
2018-03-26T23:12:59.191Z,15.00
2018-03-26T23:15:26.770Z,16.93
2018-03-26T23:17:54.335Z,22.97
2018-03-26T23:20:22.370Z,23.23
2018-03-26T23:22:49.969Z,17.77
2018-03-26T23:25:17.548Z,18.10
2018-03-26T23:27:45.157Z,19.37
2018-03-26T23:30:13.312Z,17.03
2018-03-26T23:32:40.913Z,16.03
2018-03-26T23:35:08.516Z,16.77
2018-03-26T23:37:36.101Z,19.80
2018-03-26T23:40:03.999Z,19.63
2018-03-26T23:42:31.667Z,18.10
2018-03-26T23:44:59.269Z,14.10
2018-03-26T23:47:26.887Z,15.33
2018-03-26T23:49:54.530Z,16.43
2018-03-26T23:52:22.478Z,14.50
2018-03-26T23:54:50.074Z,16.60
2018-03-26T23:57:17.682Z,15.83
2018-03-26T23:59:45.245Z,14.63
